createdAt,value
2022-12-19T00:00:50.349Z,11.00
2022-12-19T00:03:21.520Z,11.00
2022-12-19T00:05:51.507Z,11.00
2022-12-19T00:08:21.340Z,11.00
2022-12-19T00:11:01.287Z,11.00
2022-12-19T00:13:38.108Z,11.00
2022-12-19T00:16:15.375Z,11.00
2022-12-19T00:18:50.211Z,11.00
2022-12-19T00:21:24.365Z,11.00
2022-12-19T00:23:55.232Z,11.00
2022-12-19T00:26:31.262Z,11.00
2022-12-19T00:29:03.859Z,10.90
2022-12-19T00:31:37.314Z,10.90
2022-12-19T00:34:07.298Z,10.90
2022-12-19T00:36:37.749Z,10.90
2022-12-19T00:39:08.779Z,10.90
2022-12-19T00:41:42.326Z,10.90
2022-12-19T00:44:16.293Z,10.90
2022-12-19T00:46:52.362Z,10.90
2022-12-19T00:49:23.647Z,10.90
2022-12-19T00:51:53.549Z,10.90
2022-12-19T00:54:23.519Z,10.90
2022-12-19T00:56:53.981Z,10.90
2022-12-19T00:59:27.122Z,10.80
2022-12-19T01:01:58.013Z,10.80
2022-12-19T01:04:29.231Z,10.80
2022-12-19T01:07:02.502Z,10.90
2022-12-19T01:09:34.090Z,10.90
2022-12-19T01:12:24.013Z,10.90
2022-12-19T01:15:02.909Z,10.80
2022-12-19T01:17:43.468Z,10.80
2022-12-19T01:20:15.619Z,10.80
2022-12-19T01:22:46.711Z,10.90
2022-12-19T01:25:17.649Z,10.90
2022-12-19T01:27:47.467Z,10.90
2022-12-19T01:30:17.279Z,10.90
2022-12-19T01:32:48.586Z,10.90
2022-12-19T01:35:21.955Z,10.90
2022-12-19T01:37:55.917Z,10.90
2022-12-19T01:40:38.844Z,11.00
2022-12-19T01:43:15.411Z,11.00
2022-12-19T01:45:46.152Z,11.00
2022-12-19T01:48:23.220Z,11.00
2022-12-19T01:51:02.579Z,11.10
2022-12-19T01:53:49.065Z,11.10
2022-12-19T01:56:23.031Z,11.20
2022-12-19T01:59:05.671Z,11.20
2022-12-19T02:01:41.460Z,11.30
2022-12-19T02:04:23.364Z,11.40
2022-12-19T02:06:54.120Z,11.50
2022-12-19T02:09:23.692Z,11.50
2022-12-19T02:11:54.792Z,11.50
2022-12-19T02:14:25.098Z,11.60
2022-12-19T02:17:15.208Z,11.60
2022-12-19T02:20:07.780Z,11.60
2022-12-19T02:23:09.223Z,11.70
2022-12-19T02:26:01.695Z,11.70
2022-12-19T02:29:01.586Z,11.80
2022-12-19T02:31:35.148Z,11.90
2022-12-19T02:34:18.853Z,12.10
2022-12-19T02:37:04.655Z,12.20
2022-12-19T02:39:52.608Z,12.30
2022-12-19T02:42:35.093Z,12.40
2022-12-19T02:45:08.683Z,12.50
2022-12-19T02:47:40.890Z,12.60
2022-12-19T02:50:11.749Z,12.80
2022-12-19T02:52:48.752Z,12.90
2022-12-19T02:55:24.188Z,13.10
2022-12-19T02:58:30.861Z,13.10
2022-12-19T03:01:31.065Z,13.20
2022-12-19T03:04:29.380Z,13.30
2022-12-19T03:07:15.381Z,13.30
2022-12-19T03:09:59.318Z,13.40
2022-12-19T03:12:38.817Z,13.50
2022-12-19T03:15:20.518Z,13.60
2022-12-19T03:17:51.038Z,13.60
2022-12-19T03:20:30.834Z,13.80
2022-12-19T03:23:00.749Z,13.90
2022-12-19T03:25:33.031Z,14.00
2022-12-19T03:28:09.782Z,14.00
2022-12-19T03:30:41.982Z,14.00
2022-12-19T03:33:13.976Z,14.10
2022-12-19T03:35:46.329Z,14.10
2022-12-19T03:38:17.723Z,14.10
2022-12-19T03:40:50.355Z,14.30
2022-12-19T03:43:23.380Z,14.40
2022-12-19T03:46:00.673Z,14.40
2022-12-19T03:48:53.105Z,14.50
2022-12-19T03:51:59.250Z,14.70
2022-12-19T03:54:43.153Z,14.80
2022-12-19T03:57:25.379Z,15.00
2022-12-19T04:00:04.443Z,15.00
2022-12-19T04:02:40.920Z,15.10
2022-12-19T04:05:15.760Z,15.20
2022-12-19T04:07:46.794Z,15.30
2022-12-19T04:10:24.102Z,15.50
2022-12-19T04:13:07.818Z,15.60
2022-12-19T04:16:05.426Z,15.60
2022-12-19T04:18:37.308Z,15.70
2022-12-19T04:21:26.803Z,15.90
2022-12-19T04:24:04.760Z,16.00
2022-12-19T04:26:37.011Z,16.00
2022-12-19T04:29:08.609Z,16.10
2022-12-19T04:31:40.198Z,16.30
2022-12-19T04:34:10.231Z,16.40
2022-12-19T04:36:40.338Z,16.40
2022-12-19T04:39:10.214Z,16.30
2022-12-19T04:41:42.295Z,16.20
2022-12-19T04:44:12.655Z,16.30
2022-12-19T04:46:42.745Z,16.40
2022-12-19T04:49:12.638Z,16.50
2022-12-19T04:51:42.507Z,16.50
2022-12-19T04:54:12.570Z,16.70
2022-12-19T04:56:42.383Z,16.70
2022-12-19T04:59:16.456Z,16.90
2022-12-19T05:01:50.762Z,16.90
2022-12-19T05:04:21.857Z,17.00
2022-12-19T05:06:51.774Z,17.00
2022-12-19T05:09:22.649Z,17.00
2022-12-19T05:11:53.704Z,17.10
2022-12-19T05:14:23.672Z,17.20
2022-12-19T05:16:58.871Z,17.30
2022-12-19T05:19:31.669Z,17.40
2022-12-19T05:22:02.683Z,17.50
2022-12-19T05:24:32.986Z,17.40
2022-12-19T05:27:04.634Z,17.40
2022-12-19T05:29:34.466Z,17.50
2022-12-19T05:32:04.359Z,17.60
2022-12-19T05:34:34.714Z,17.60
2022-12-19T05:37:05.403Z,17.90
2022-12-19T05:39:36.640Z,17.80
2022-12-19T05:42:12.110Z,17.80
2022-12-19T05:44:42.460Z,17.90
2022-12-19T05:47:12.498Z,18.00
2022-12-19T05:49:42.443Z,18.00
2022-12-19T05:52:13.203Z,18.10
2022-12-19T05:54:43.404Z,18.20
2022-12-19T05:57:13.499Z,18.20
2022-12-19T05:59:44.234Z,18.10
2022-12-19T06:02:14.468Z,18.20
2022-12-19T06:04:44.680Z,18.30
2022-12-19T06:07:19.299Z,18.40
2022-12-19T06:09:50.914Z,18.30
2022-12-19T06:12:20.792Z,18.60
2022-12-19T06:14:51.640Z,18.50
2022-12-19T06:17:21.683Z,18.70
2022-12-19T06:19:51.635Z,18.60
2022-12-19T06:22:21.683Z,18.60
2022-12-19T06:24:51.935Z,18.80
2022-12-19T06:27:22.057Z,18.70
2022-12-19T06:29:51.965Z,18.70
2022-12-19T06:32:21.937Z,18.70
2022-12-19T06:35:06.914Z,18.70
2022-12-19T06:37:39.455Z,18.80
2022-12-19T06:40:29.807Z,18.80
2022-12-19T06:43:00.576Z,18.80
2022-12-19T06:45:30.650Z,18.90
2022-12-19T06:48:00.808Z,19.00
2022-12-19T06:50:30.789Z,19.20
2022-12-19T06:53:01.841Z,19.20
2022-12-19T06:55:31.830Z,19.30
2022-12-19T06:58:02.652Z,19.30
2022-12-19T07:00:33.357Z,19.30
2022-12-19T07:03:03.895Z,19.40
2022-12-19T07:05:34.139Z,19.50
2022-12-19T07:08:04.126Z,19.50
2022-12-19T07:10:34.199Z,19.40
2022-12-19T07:13:05.164Z,19.50
2022-12-19T07:15:37.851Z,19.40
2022-12-19T07:18:10.820Z,19.40
2022-12-19T07:20:45.410Z,19.20
2022-12-19T07:23:21.652Z,19.20
2022-12-19T07:25:51.979Z,19.30
2022-12-19T07:28:21.725Z,19.30
2022-12-19T07:30:51.912Z,19.30
2022-12-19T07:33:22.279Z,19.30
2022-12-19T07:35:53.168Z,19.40
2022-12-19T07:38:23.458Z,19.50
2022-12-19T07:40:53.383Z,19.50
2022-12-19T07:43:23.194Z,19.60
2022-12-19T07:45:58.273Z,19.60
2022-12-19T07:48:30.404Z,19.50
2022-12-19T07:51:00.357Z,19.50
2022-12-19T07:53:31.092Z,19.60
2022-12-19T07:56:01.875Z,19.60
2022-12-19T07:58:32.325Z,19.60
2022-12-19T08:01:03.419Z,19.60
2022-12-19T08:03:33.443Z,19.70
2022-12-19T08:06:13.110Z,19.80
2022-12-19T08:08:43.570Z,19.80
2022-12-19T08:11:15.955Z,19.70
2022-12-19T08:13:47.176Z,19.70
2022-12-19T08:16:18.364Z,19.60
2022-12-19T08:18:50.107Z,19.70
2022-12-19T08:21:20.096Z,19.60
2022-12-19T08:23:50.304Z,19.60
2022-12-19T08:26:32.705Z,19.60
2022-12-19T08:29:07.579Z,19.50
2022-12-19T08:31:37.688Z,19.50
2022-12-19T08:34:07.664Z,19.50
2022-12-19T08:36:37.585Z,19.50
2022-12-19T08:39:08.412Z,19.50
2022-12-19T08:41:38.514Z,19.60
2022-12-19T08:44:09.218Z,19.60
2022-12-19T08:46:39.249Z,19.60
2022-12-19T08:49:09.243Z,19.70
2022-12-19T08:51:39.164Z,19.80
2022-12-19T08:54:11.911Z,19.80
2022-12-19T08:56:46.920Z,19.70
2022-12-19T08:59:30.894Z,19.70
2022-12-19T09:02:03.784Z,19.70
2022-12-19T09:05:59.557Z,19.90
2022-12-19T09:07:26.252Z,19.70
2022-12-19T09:09:56.226Z,19.60
2022-12-19T09:12:26.366Z,19.50
2022-12-19T09:14:56.812Z,19.50
2022-12-19T09:17:26.057Z,19.50
2022-12-19T09:19:55.928Z,19.40
2022-12-19T09:22:29.194Z,19.40
2022-12-19T09:24:59.603Z,19.40
2022-12-19T09:27:29.701Z,19.40
2022-12-19T09:29:59.754Z,19.40
2022-12-19T09:32:30.599Z,19.50
2022-12-19T09:35:00.400Z,19.40
2022-12-19T09:37:30.431Z,19.30
2022-12-19T09:40:01.142Z,19.30
2022-12-19T09:42:55.639Z,19.30
2022-12-19T09:46:00.148Z,19.20
2022-12-19T09:48:30.223Z,19.10
2022-12-19T09:51:27.480Z,19.10
2022-12-19T09:54:26.715Z,19.00
2022-12-19T09:57:03.520Z,18.90
2022-12-19T09:59:49.385Z,19.00
2022-12-19T10:02:56.421Z,18.90
2022-12-19T10:07:06.979Z,18.70
2022-12-19T10:09:42.723Z,18.70
2022-12-19T10:12:44.449Z,18.20
2022-12-19T10:15:16.138Z,18.60
2022-12-19T10:18:04.320Z,18.50
2022-12-19T10:20:40.443Z,18.50
2022-12-19T10:23:49.186Z,18.40
2022-12-19T10:26:29.997Z,18.20
2022-12-19T10:29:28.920Z,18.20
2022-12-19T10:32:28.538Z,18.20
2022-12-19T10:34:59.144Z,18.10
2022-12-19T10:37:42.331Z,18.00
2022-12-19T10:40:30.783Z,18.10
2022-12-19T10:43:32.109Z,18.00
2022-12-19T10:46:12.678Z,17.90
2022-12-19T10:48:43.457Z,17.90
2022-12-19T10:51:29.581Z,17.90
2022-12-19T10:54:02.068Z,17.90
2022-12-19T10:56:37.789Z,17.90
2022-12-19T10:59:22.496Z,17.80
2022-12-19T11:02:00.988Z,17.70
2022-12-19T11:04:40.009Z,17.70
2022-12-19T11:07:22.662Z,17.70
2022-12-19T11:10:20.529Z,17.60
2022-12-19T11:18:42.658Z,17.60
2022-12-19T11:22:06.029Z,17.50
2022-12-19T11:29:15.611Z,17.40
2022-12-19T11:29:39.513Z,17.40
2022-12-19T11:29:46.779Z,17.30
2022-12-19T11:30:35.540Z,17.40
2022-12-19T11:33:27.187Z,17.20
2022-12-19T11:36:00.200Z,17.10
2022-12-19T11:38:47.839Z,17.10
2022-12-19T11:41:25.767Z,17.10
2022-12-19T11:44:05.241Z,17.10
2022-12-19T11:46:51.882Z,17.10
2022-12-19T11:49:41.151Z,17.00
2022-12-19T11:56:03.653Z,16.90
2022-12-19T11:58:34.873Z,16.80
2022-12-19T12:01:28.473Z,16.80
2022-12-19T12:04:32.830Z,16.80
2022-12-19T12:07:06.683Z,16.80
2022-12-19T12:15:44.912Z,16.70
2022-12-19T12:20:21.158Z,16.70
2022-12-19T12:26:21.429Z,16.60
2022-12-19T12:31:31.376Z,16.50
2022-12-19T12:31:39.938Z,16.60
2022-12-19T12:31:40.357Z,16.50
2022-12-19T12:31:45.499Z,16.40
2022-12-19T12:35:41.441Z,16.40
2022-12-19T12:39:18.370Z,16.30
2022-12-19T12:42:25.074Z,16.20
2022-12-19T12:45:00.339Z,16.20
2022-12-19T12:47:31.891Z,16.20
2022-12-19T12:50:08.284Z,16.20
2022-12-19T12:52:45.267Z,16.10
2022-12-19T12:55:41.844Z,16.10
2022-12-19T12:58:46.111Z,16.00
2022-12-19T13:01:22.360Z,16.00
2022-12-19T13:04:00.375Z,16.00
2022-12-19T13:07:09.048Z,16.00
2022-12-19T13:09:39.066Z,16.00
2022-12-19T13:12:46.374Z,15.90
2022-12-19T13:15:36.061Z,15.90
2022-12-19T13:18:39.177Z,15.90
2022-12-19T13:21:11.530Z,15.90
2022-12-19T13:23:49.080Z,15.80
2022-12-19T13:26:47.803Z,15.80
2022-12-19T13:29:31.885Z,15.70
2022-12-19T13:32:18.359Z,15.70
2022-12-19T13:35:04.764Z,15.70
2022-12-19T13:39:57.250Z,15.70
2022-12-19T13:41:03.915Z,15.70
2022-12-19T13:43:49.155Z,15.60
2022-12-19T13:46:44.474Z,15.60
2022-12-19T13:49:34.192Z,15.60
2022-12-19T13:52:05.848Z,15.60
2022-12-19T13:54:47.664Z,15.60
2022-12-19T13:57:27.811Z,15.50
2022-12-19T14:00:02.076Z,15.50
2022-12-19T14:02:45.278Z,15.50
2022-12-19T14:06:16.328Z,15.40
2022-12-19T14:08:29.117Z,15.40
2022-12-19T14:11:30.930Z,15.40
2022-12-19T14:14:16.456Z,15.30
2022-12-19T14:16:49.527Z,15.30
2022-12-19T14:19:26.758Z,15.20
2022-12-19T14:22:10.399Z,15.20
2022-12-19T14:24:55.652Z,15.20
2022-12-19T14:28:21.291Z,15.20
2022-12-19T14:30:57.548Z,15.20
2022-12-19T14:33:44.991Z,15.10
2022-12-19T14:36:28.342Z,15.00
2022-12-19T14:39:23.552Z,15.10
2022-12-19T14:42:11.789Z,15.00
2022-12-19T14:52:08.377Z,15.10
2022-12-19T14:54:01.798Z,15.00
2022-12-19T14:54:27.513Z,14.90
2022-12-19T14:54:34.715Z,14.90
2022-12-19T14:59:30.511Z,14.80
2022-12-19T15:02:27.716Z,14.80
2022-12-19T15:05:08.320Z,14.70
2022-12-19T15:07:44.152Z,14.70
2022-12-19T15:11:04.090Z,14.70
2022-12-19T15:14:53.358Z,14.60
2022-12-19T15:16:36.309Z,14.60
2022-12-19T15:19:12.718Z,14.60
2022-12-19T15:21:42.629Z,14.60
2022-12-19T15:24:12.531Z,14.60
2022-12-19T15:26:50.497Z,14.60
2022-12-19T15:29:22.272Z,14.60
2022-12-19T15:31:52.455Z,14.60
2022-12-19T15:34:36.785Z,14.50
2022-12-19T15:37:13.191Z,14.50
2022-12-19T15:39:44.642Z,14.40
2022-12-19T15:42:24.009Z,14.50
2022-12-19T15:44:57.364Z,14.40
2022-12-19T15:47:41.937Z,14.40
2022-12-19T15:50:28.459Z,14.40
2022-12-19T15:53:01.055Z,14.30
2022-12-19T15:55:32.940Z,14.30
2022-12-19T15:58:07.064Z,14.30
2022-12-19T16:00:38.660Z,14.30
2022-12-19T16:03:22.666Z,14.30
2022-12-19T16:05:54.447Z,14.20
2022-12-19T16:08:27.861Z,14.20
2022-12-19T16:11:01.822Z,14.20
2022-12-19T16:13:36.215Z,14.20
2022-12-19T16:16:15.152Z,14.10
2022-12-19T16:18:47.000Z,14.00
2022-12-19T16:21:33.492Z,14.00
2022-12-19T16:24:03.902Z,14.00
2022-12-19T16:26:37.839Z,13.90
2022-12-19T16:29:11.077Z,13.90
2022-12-19T16:31:41.432Z,13.90
2022-12-19T16:34:21.228Z,13.90
2022-12-19T16:36:52.087Z,13.80
2022-12-19T16:39:22.053Z,13.80
2022-12-19T16:41:52.313Z,13.70
2022-12-19T16:44:24.012Z,13.60
2022-12-19T16:46:54.550Z,13.60
2022-12-19T16:49:25.204Z,13.60
2022-12-19T16:51:54.419Z,13.60
2022-12-19T16:54:24.286Z,13.50
2022-12-19T16:56:56.357Z,13.60
2022-12-19T16:59:35.696Z,13.60
2022-12-19T17:02:29.934Z,13.50
2022-12-19T17:04:59.894Z,13.40
2022-12-19T17:07:31.209Z,13.50
2022-12-19T17:10:01.153Z,13.40
2022-12-19T17:12:31.396Z,13.50
2022-12-19T17:15:01.628Z,13.40
2022-12-19T17:17:31.443Z,13.40
2022-12-19T17:20:01.585Z,13.40
2022-12-19T17:22:31.546Z,13.50
2022-12-19T17:25:01.386Z,13.40
2022-12-19T17:27:31.160Z,13.40
2022-12-19T17:30:01.085Z,13.50
2022-12-19T17:32:31.066Z,13.50
2022-12-19T17:35:01.029Z,13.50
2022-12-19T17:37:31.140Z,13.40
2022-12-19T17:40:00.962Z,13.40
2022-12-19T17:42:36.845Z,13.30
2022-12-19T17:45:07.851Z,13.30
2022-12-19T17:47:37.639Z,13.20
2022-12-19T17:50:09.535Z,13.20
2022-12-19T17:52:39.503Z,13.20
2022-12-19T17:55:20.046Z,13.20
2022-12-19T17:57:50.255Z,13.10
2022-12-19T18:00:28.398Z,13.10
2022-12-19T18:03:02.803Z,13.10
2022-12-19T18:05:37.694Z,13.00
2022-12-19T18:08:21.073Z,13.00
2022-12-19T18:10:50.928Z,13.00
2022-12-19T18:13:22.003Z,13.00
2022-12-19T18:15:52.495Z,13.00
2022-12-19T18:18:28.661Z,13.00
2022-12-19T18:20:59.330Z,12.90
2022-12-19T18:23:29.046Z,12.90
2022-12-19T18:26:01.775Z,12.90
2022-12-19T18:28:32.879Z,12.80
2022-12-19T18:31:11.934Z,12.80
2022-12-19T18:33:44.245Z,12.80
2022-12-19T18:36:32.731Z,12.70
2022-12-19T18:39:02.708Z,12.70
2022-12-19T18:41:32.557Z,12.70
2022-12-19T18:44:02.357Z,12.70
2022-12-19T18:46:33.910Z,12.60
2022-12-19T18:49:03.747Z,12.70
2022-12-19T18:51:33.757Z,12.70
2022-12-19T18:54:03.609Z,12.70
2022-12-19T18:56:33.524Z,12.60
2022-12-19T18:59:06.219Z,12.60
2022-12-19T19:01:37.898Z,12.60
2022-12-19T19:04:08.884Z,12.60
2022-12-19T19:06:39.091Z,12.60
2022-12-19T19:09:18.505Z,12.50
2022-12-19T19:11:48.356Z,12.50
2022-12-19T19:14:18.225Z,12.50
2022-12-19T19:16:48.268Z,12.50
2022-12-19T19:19:20.297Z,12.40
2022-12-19T19:21:50.457Z,12.40
2022-12-19T19:24:23.489Z,12.40
2022-12-19T19:26:53.398Z,12.50
2022-12-19T19:29:23.309Z,12.40
2022-12-19T19:31:54.549Z,12.40
2022-12-19T19:34:29.185Z,12.40
2022-12-19T19:37:03.436Z,12.40
2022-12-19T19:39:35.851Z,12.30
2022-12-19T19:42:05.927Z,12.30
2022-12-19T19:44:35.917Z,12.20
2022-12-19T19:47:05.773Z,12.30
2022-12-19T19:49:35.915Z,12.30
2022-12-19T19:52:05.809Z,12.20
2022-12-19T19:54:37.392Z,12.20
2022-12-19T19:57:07.457Z,12.20
2022-12-19T19:59:37.367Z,12.20
2022-12-19T20:02:07.454Z,12.20
2022-12-19T20:04:38.286Z,12.20
2022-12-19T20:07:08.032Z,12.10
2022-12-19T20:09:38.041Z,12.10
2022-12-19T20:12:08.065Z,12.20
2022-12-19T20:14:38.088Z,12.10
2022-12-19T20:17:08.190Z,12.10
2022-12-19T20:19:38.059Z,12.10
2022-12-19T20:22:08.025Z,12.10
2022-12-19T20:24:37.899Z,12.00
2022-12-19T20:27:07.764Z,12.00
2022-12-19T20:29:38.258Z,12.00
2022-12-19T20:32:08.566Z,12.00
2022-12-19T20:34:38.428Z,12.00
2022-12-19T20:37:08.394Z,12.00
2022-12-19T20:39:38.285Z,12.00
2022-12-19T20:42:08.407Z,11.90
2022-12-19T20:44:38.522Z,12.00
2022-12-19T20:47:08.441Z,12.00
2022-12-19T20:49:38.578Z,12.00
2022-12-19T20:52:08.544Z,11.90
2022-12-19T20:54:38.378Z,11.90
2022-12-19T20:57:08.300Z,11.90
2022-12-19T20:59:38.136Z,11.90
2022-12-19T21:02:08.509Z,11.80
2022-12-19T21:04:38.732Z,11.80
2022-12-19T21:07:08.784Z,11.80
2022-12-19T21:09:38.809Z,11.70
2022-12-19T21:12:08.845Z,11.70
2022-12-19T21:14:38.681Z,11.70
2022-12-19T21:17:08.747Z,11.70
2022-12-19T21:19:38.656Z,11.50
2022-12-19T21:22:08.448Z,11.70
2022-12-19T21:24:38.637Z,11.70
2022-12-19T21:27:08.520Z,11.70
2022-12-19T21:29:38.329Z,11.70
2022-12-19T21:32:11.002Z,11.60
2022-12-19T21:34:44.951Z,11.70
2022-12-19T21:37:14.993Z,11.70
2022-12-19T21:39:44.915Z,11.60
2022-12-19T21:42:14.898Z,11.60
2022-12-19T21:44:44.732Z,11.60
2022-12-19T21:47:14.669Z,11.60
2022-12-19T21:49:44.645Z,11.60
2022-12-19T21:52:15.182Z,11.60
2022-12-19T21:54:45.123Z,11.50
2022-12-19T21:57:15.065Z,11.50
2022-12-19T21:59:45.090Z,11.50
2022-12-19T22:02:15.218Z,11.50
2022-12-19T22:04:45.233Z,11.40
2022-12-19T22:07:15.115Z,11.40
2022-12-19T22:09:45.103Z,11.40
2022-12-19T22:12:15.829Z,11.40
2022-12-19T22:14:45.387Z,11.40
2022-12-19T22:17:15.350Z,11.40
2022-12-19T22:19:45.296Z,11.30
2022-12-19T22:22:15.266Z,11.30
2022-12-19T22:24:45.158Z,11.30
2022-12-19T22:27:15.223Z,11.30
2022-12-19T22:29:45.107Z,11.30
2022-12-19T22:32:14.999Z,11.30
2022-12-19T22:34:45.037Z,11.30
2022-12-19T22:37:14.968Z,11.30
2022-12-19T22:39:44.940Z,11.20
2022-12-19T22:42:14.757Z,11.20
2022-12-19T22:44:44.611Z,11.20
2022-12-19T22:47:14.487Z,11.20
2022-12-19T22:49:44.381Z,11.20
2022-12-19T22:52:14.282Z,11.20
2022-12-19T22:54:44.187Z,11.20
2022-12-19T22:57:14.259Z,11.20
2022-12-19T22:59:44.460Z,11.20
2022-12-19T23:02:14.448Z,11.20
2022-12-19T23:04:44.522Z,11.20
2022-12-19T23:07:14.423Z,11.20
2022-12-19T23:09:44.484Z,11.20
2022-12-19T23:12:14.648Z,11.20
2022-12-19T23:14:44.600Z,11.10
2022-12-19T23:17:14.463Z,11.10
2022-12-19T23:19:44.438Z,11.10
2022-12-19T23:22:14.316Z,11.10
2022-12-19T23:24:46.333Z,11.10
2022-12-19T23:27:16.208Z,11.00
2022-12-19T23:29:47.420Z,11.00
2022-12-19T23:32:17.342Z,11.00
2022-12-19T23:34:47.658Z,11.00
2022-12-19T23:37:17.954Z,11.00
2022-12-19T23:39:47.875Z,11.00
2022-12-19T23:42:17.792Z,10.90
2022-12-19T23:44:47.717Z,11.00
2022-12-19T23:47:17.612Z,10.90
2022-12-19T23:49:47.541Z,10.90
2022-12-19T23:52:18.131Z,10.90
2022-12-19T23:54:49.114Z,10.90
2022-12-19T23:57:18.931Z,10.90
2022-12-19T23:59:48.887Z,10.80
